createdAt,value
2023-04-18T00:00:10.571Z,70.00
2023-04-18T00:02:38.615Z,69.90
2023-04-18T00:05:07.618Z,69.30
2023-04-18T00:07:35.523Z,68.40
2023-04-18T00:10:04.154Z,68.90
2023-04-18T00:12:31.959Z,68.70
2023-04-18T00:14:58.792Z,67.70
2023-04-18T00:17:27.683Z,66.40
2023-04-18T00:19:56.321Z,65.70
2023-04-18T00:22:23.348Z,65.20
2023-04-18T00:24:53.813Z,64.70
2023-04-18T00:27:21.159Z,64.80
2023-04-18T00:29:48.101Z,65.40
2023-04-18T00:32:15.126Z,66.20
2023-04-18T00:34:41.843Z,66.30
2023-04-18T00:37:08.709Z,66.30
2023-04-18T00:39:36.175Z,65.80
2023-04-18T00:42:04.213Z,65.30
2023-04-18T00:44:31.829Z,65.30
2023-04-18T00:46:59.011Z,65.00
2023-04-18T00:49:26.978Z,65.50
2023-04-18T00:51:55.678Z,66.40
2023-04-18T00:54:24.270Z,66.70
2023-04-18T00:56:51.349Z,67.20
2023-04-18T00:59:18.343Z,68.10
2023-04-18T01:01:45.298Z,68.80
2023-04-18T01:04:12.422Z,69.40
2023-04-18T01:06:39.729Z,72.00
2023-04-18T01:09:06.746Z,72.20
2023-04-18T01:11:33.479Z,72.20
2023-04-18T01:14:08.064Z,71.50
2023-04-18T01:16:36.834Z,70.80
2023-04-18T01:19:04.720Z,70.20
2023-04-18T01:21:34.019Z,70.40
2023-04-18T01:24:08.557Z,70.70
2023-04-18T01:26:35.761Z,70.90
2023-04-18T01:29:02.495Z,70.70
2023-04-18T01:31:29.289Z,70.20
2023-04-18T01:33:56.037Z,69.60
2023-04-18T01:36:22.796Z,69.50
2023-04-18T01:38:49.510Z,70.80
2023-04-18T01:41:16.209Z,72.10
2023-04-18T01:43:43.007Z,72.30
2023-04-18T01:46:09.775Z,72.20
2023-04-18T01:48:36.697Z,72.20
2023-04-18T01:51:03.707Z,72.20
2023-04-18T01:53:30.822Z,75.00
2023-04-18T01:55:58.446Z,76.40
2023-04-18T01:58:25.547Z,77.10
2023-04-18T02:00:53.357Z,77.80
2023-04-18T02:03:20.902Z,77.90
2023-04-18T02:05:48.018Z,78.30
2023-04-18T02:08:14.910Z,78.70
2023-04-18T02:10:41.785Z,79.00
2023-04-18T02:13:08.733Z,79.20
2023-04-18T02:15:35.673Z,79.30
2023-04-18T02:18:03.115Z,80.00
2023-04-18T02:20:31.750Z,80.90
2023-04-18T02:22:58.968Z,81.50
2023-04-18T02:25:27.610Z,81.60
2023-04-18T02:27:55.591Z,82.80
2023-04-18T02:30:23.063Z,82.70
2023-04-18T02:32:54.108Z,82.50
2023-04-18T02:35:21.492Z,82.80
2023-04-18T02:37:48.325Z,82.70
2023-04-18T02:40:15.282Z,82.80
2023-04-18T02:42:42.069Z,82.80
2023-04-18T02:45:09.773Z,82.30
2023-04-18T02:47:43.826Z,82.00
2023-04-18T02:50:18.511Z,81.20
2023-04-18T02:52:45.511Z,81.10
2023-04-18T02:55:12.904Z,80.60
2023-04-18T02:57:39.723Z,80.40
2023-04-18T03:00:08.448Z,79.70
2023-04-18T03:02:35.306Z,78.70
2023-04-18T03:05:02.283Z,77.50
2023-04-18T03:07:30.798Z,75.80
2023-04-18T03:09:57.849Z,74.60
2023-04-18T03:12:24.939Z,75.20
2023-04-18T03:14:51.760Z,74.60
2023-04-18T03:17:18.660Z,74.40
2023-04-18T03:19:46.475Z,75.40
2023-04-18T03:22:14.143Z,76.00
2023-04-18T03:24:41.289Z,76.30
2023-04-18T03:27:08.067Z,76.80
2023-04-18T03:29:34.808Z,77.60
2023-04-18T03:32:01.548Z,78.40
2023-04-18T03:34:29.689Z,78.40
2023-04-18T03:36:56.853Z,78.70
2023-04-18T03:39:23.592Z,79.10
2023-04-18T03:41:50.766Z,79.30
2023-04-18T03:44:17.535Z,79.40
2023-04-18T03:46:44.562Z,79.20
2023-04-18T03:49:11.478Z,79.20
2023-04-18T03:51:49.291Z,79.10
2023-04-18T03:54:17.141Z,79.50
2023-04-18T03:56:44.673Z,79.00
2023-04-18T03:59:12.038Z,79.70
2023-04-18T04:01:38.882Z,80.00
2023-04-18T04:04:05.849Z,80.80
2023-04-18T04:06:32.658Z,81.60
2023-04-18T04:08:59.459Z,81.50
2023-04-18T04:11:26.779Z,81.10
2023-04-18T04:13:53.662Z,81.60
2023-04-18T04:16:20.439Z,81.40
2023-04-18T04:18:47.310Z,81.10
2023-04-18T04:21:14.289Z,81.00
2023-04-18T04:23:42.570Z,81.20
2023-04-18T04:26:10.733Z,80.90
2023-04-18T04:28:38.888Z,80.80
2023-04-18T04:31:06.819Z,81.00
2023-04-18T04:33:33.852Z,80.80
2023-04-18T04:36:01.295Z,80.90
2023-04-18T04:38:31.116Z,80.80
2023-04-18T04:40:58.454Z,80.80
2023-04-18T04:43:26.155Z,80.70
2023-04-18T04:45:54.056Z,80.20
2023-04-18T04:48:22.092Z,79.80
2023-04-18T04:50:54.630Z,79.70
2023-04-18T04:53:22.611Z,79.70
2023-04-18T04:55:50.570Z,79.40
2023-04-18T04:58:17.803Z,79.40
2023-04-18T05:00:44.588Z,79.40
2023-04-18T05:03:11.632Z,79.10
2023-04-18T05:05:38.546Z,78.30
2023-04-18T05:08:05.644Z,78.20
2023-04-18T05:10:32.651Z,77.80
2023-04-18T05:12:59.351Z,77.00
2023-04-18T05:15:27.217Z,77.30
2023-04-18T05:17:54.246Z,77.10
2023-04-18T05:20:21.174Z,77.80
2023-04-18T05:22:47.876Z,78.40
2023-04-18T05:25:14.728Z,78.90
2023-04-18T05:27:41.726Z,79.50
2023-04-18T05:30:08.968Z,80.00
2023-04-18T05:32:35.910Z,80.10
2023-04-18T05:35:03.144Z,81.00
2023-04-18T05:37:29.956Z,82.00
2023-04-18T05:39:58.239Z,82.00
2023-04-18T05:42:26.196Z,81.60
2023-04-18T05:44:52.978Z,81.70
2023-04-18T05:47:19.787Z,81.40
2023-04-18T05:49:46.611Z,82.20
2023-04-18T05:52:13.456Z,82.50
2023-04-18T05:54:41.140Z,83.50
2023-04-18T05:57:07.945Z,83.80
2023-04-18T05:59:34.669Z,84.80
2023-04-18T06:02:01.478Z,84.90
2023-04-18T06:04:28.566Z,84.70
2023-04-18T06:06:55.425Z,83.70
2023-04-18T06:09:22.148Z,84.00
2023-04-18T06:11:49.501Z,84.50
2023-04-18T06:14:16.532Z,86.10
2023-04-18T06:16:43.630Z,86.20
2023-04-18T06:19:10.473Z,86.20
2023-04-18T06:21:37.345Z,86.30
2023-04-18T06:24:04.241Z,85.20
2023-04-18T06:26:32.003Z,86.30
2023-04-18T06:28:58.889Z,86.20
2023-04-18T06:31:26.031Z,86.30
2023-04-18T06:33:53.089Z,86.80
2023-04-18T06:36:20.244Z,86.20
2023-04-18T06:38:47.175Z,87.30
2023-04-18T06:41:15.762Z,86.20
2023-04-18T06:43:51.999Z,87.10
2023-04-18T06:46:26.616Z,88.20
2023-04-18T06:48:53.378Z,87.60
2023-04-18T06:51:20.190Z,88.40
2023-04-18T06:53:47.622Z,89.60
2023-04-18T06:56:15.825Z,89.60
2023-04-18T06:58:42.765Z,89.00
2023-04-18T07:01:09.626Z,89.00
2023-04-18T07:03:36.667Z,90.20
2023-04-18T07:06:04.604Z,90.30
2023-04-18T07:08:31.430Z,89.80
2023-04-18T07:10:58.156Z,89.00
2023-04-18T07:13:25.132Z,89.60
2023-04-18T07:15:52.050Z,89.00
2023-04-18T07:18:30.243Z,89.40
2023-04-18T07:21:03.849Z,90.00
2023-04-18T07:23:30.762Z,90.00
2023-04-18T07:25:59.514Z,89.90
2023-04-18T07:28:29.662Z,89.60
2023-04-18T07:30:57.005Z,88.40
2023-04-18T07:33:24.740Z,88.50
2023-04-18T07:35:53.139Z,88.50
2023-04-18T07:38:20.181Z,86.40
2023-04-18T07:40:47.129Z,86.30
2023-04-18T07:43:14.075Z,86.90
2023-04-18T07:45:43.127Z,87.80
2023-04-18T07:48:11.294Z,88.90
2023-04-18T07:50:38.288Z,90.30
2023-04-18T07:53:05.251Z,88.90
2023-04-18T07:55:32.221Z,88.80
2023-04-18T07:57:59.061Z,89.70
2023-04-18T08:00:26.383Z,89.90
2023-04-18T08:02:53.413Z,90.00
2023-04-18T08:05:20.571Z,89.80
2023-04-18T08:07:47.410Z,90.20
2023-04-18T08:10:14.171Z,90.00
2023-04-18T08:12:41.184Z,89.80
2023-04-18T08:15:08.786Z,87.60
2023-04-18T08:17:35.970Z,88.50
2023-04-18T08:20:07.170Z,89.30
2023-04-18T08:22:34.078Z,88.60
2023-04-18T08:25:05.344Z,88.50
2023-04-18T08:27:33.147Z,89.20
2023-04-18T08:30:00.594Z,89.60
2023-04-18T08:32:27.709Z,90.10
2023-04-18T08:34:56.077Z,90.30
2023-04-18T08:37:22.944Z,90.30
2023-04-18T08:39:49.874Z,90.00
2023-04-18T08:42:21.491Z,90.00
2023-04-18T08:44:49.855Z,90.40
2023-04-18T08:47:16.577Z,90.50
2023-04-18T08:49:46.802Z,90.60
2023-04-18T08:52:14.987Z,90.40
2023-04-18T08:54:42.856Z,90.60
2023-04-18T08:57:12.386Z,90.60
2023-04-18T08:59:40.154Z,90.70
2023-04-18T09:02:08.988Z,90.50
2023-04-18T09:04:49.092Z,90.60
2023-04-18T09:07:17.422Z,91.10
2023-04-18T09:09:51.312Z,91.20
2023-04-18T09:12:27.038Z,91.50
2023-04-18T09:14:59.699Z,91.20
2023-04-18T09:17:38.778Z,91.00
2023-04-18T09:20:08.686Z,91.00
2023-04-18T09:22:46.183Z,90.80
2023-04-18T09:25:44.404Z,89.90
2023-04-18T09:28:28.760Z,90.40
2023-04-18T09:31:04.352Z,90.00
2023-04-18T09:33:36.740Z,90.70
2023-04-18T09:36:23.701Z,90.50
2023-04-18T09:38:54.434Z,89.20
2023-04-18T09:41:23.248Z,89.70
2023-04-18T09:43:50.249Z,88.40
2023-04-18T09:46:21.753Z,85.70
2023-04-18T09:48:48.616Z,86.10
2023-04-18T09:51:16.815Z,85.10
2023-04-18T09:53:47.323Z,83.50
2023-04-18T09:56:34.454Z,83.20
2023-04-18T09:59:09.661Z,82.20
2023-04-18T10:01:36.695Z,82.60
2023-04-18T10:04:06.551Z,80.10
2023-04-18T10:06:39.729Z,79.00
2023-04-18T10:09:09.358Z,78.10
2023-04-18T10:11:36.818Z,75.40
2023-04-18T10:14:09.669Z,76.30
2023-04-18T10:16:37.922Z,77.20
2023-04-18T10:19:25.064Z,77.30
2023-04-18T10:21:56.954Z,73.20
2023-04-18T10:24:49.841Z,73.20
2023-04-18T10:27:17.689Z,73.30
2023-04-18T10:29:51.354Z,73.30
2023-04-18T10:32:19.516Z,73.30
2023-04-18T10:34:47.831Z,70.90
2023-04-18T10:37:15.342Z,68.10
2023-04-18T10:39:57.257Z,68.90
2023-04-18T10:42:51.870Z,65.00
2023-04-18T10:45:26.834Z,62.70
2023-04-18T10:48:23.177Z,65.70
2023-04-18T10:51:12.556Z,65.70
2023-04-18T10:53:39.559Z,67.60
2023-04-18T10:56:12.579Z,65.50
2023-04-18T10:58:42.258Z,63.30
2023-04-18T11:01:12.834Z,61.80
2023-04-18T11:03:39.792Z,61.30
2023-04-18T11:06:06.826Z,62.50
2023-04-18T11:08:34.041Z,62.70
2023-04-18T11:11:03.082Z,61.20
2023-04-18T11:13:30.069Z,59.40
2023-04-18T11:15:56.768Z,59.80
2023-04-18T11:18:23.548Z,59.80
2023-04-18T11:20:51.233Z,59.70
2023-04-18T11:23:24.927Z,59.60
2023-04-18T11:25:54.396Z,54.20
2023-04-18T11:28:24.645Z,54.10
2023-04-18T11:30:51.421Z,58.10
2023-04-18T11:33:18.395Z,53.60
2023-04-18T11:35:46.418Z,53.40
2023-04-18T11:38:15.093Z,53.50
2023-04-18T11:40:49.218Z,52.20
2023-04-18T11:43:23.382Z,52.10
2023-04-18T11:45:58.386Z,51.80
2023-04-18T11:48:38.078Z,46.70
2023-04-18T11:51:06.781Z,49.80
2023-04-18T11:53:35.381Z,46.90
2023-04-18T11:56:03.673Z,46.90
2023-04-18T11:58:32.670Z,48.80
2023-04-18T12:01:01.083Z,34.90
2023-04-18T12:03:29.705Z,22.40
2023-04-18T12:06:01.250Z,21.00
2023-04-18T12:08:28.354Z,21.00
2023-04-18T12:10:55.575Z,19.20
2023-04-18T12:13:30.969Z,15.50
2023-04-18T12:15:58.230Z,12.40
2023-04-18T12:18:24.990Z,12.60
2023-04-18T12:20:54.316Z,12.10
2023-04-18T12:23:40.072Z,12.90
2023-04-18T12:26:11.369Z,14.50
2023-04-18T12:28:38.263Z,11.80
2023-04-18T12:31:08.801Z,10.00
2023-04-18T12:33:38.391Z,8.70
2023-04-18T12:36:06.065Z,9.80
2023-04-18T12:38:32.836Z,9.90
2023-04-18T12:40:59.699Z,9.50
2023-04-18T12:43:26.699Z,9.00
2023-04-18T12:45:53.685Z,6.50
2023-04-18T12:48:20.522Z,7.70
2023-04-18T12:50:47.312Z,5.40
2023-04-18T12:53:14.075Z,6.50
2023-04-18T12:55:41.195Z,6.00
2023-04-18T12:58:07.962Z,5.20
2023-04-18T13:00:35.064Z,4.80
2023-04-18T13:03:02.317Z,4.50
2023-04-18T13:05:33.024Z,6.00
2023-04-18T13:08:12.766Z,6.20
2023-04-18T13:10:42.853Z,2.40
2023-04-18T13:13:09.688Z,2.20
2023-04-18T13:15:36.727Z,1.60
2023-04-18T13:18:06.169Z,1.00
2023-04-18T13:20:34.089Z,2.70
2023-04-18T13:23:02.690Z,2.20
2023-04-18T13:25:29.683Z,1.50
2023-04-18T13:27:58.612Z,1.00
2023-04-18T13:30:25.547Z,1.00
2023-04-18T13:32:52.331Z,1.00
2023-04-18T13:35:19.316Z,1.00
2023-04-18T13:37:46.331Z,1.00
2023-04-18T13:40:13.633Z,1.40
2023-04-18T13:42:40.454Z,1.00
2023-04-18T13:45:07.715Z,1.00
2023-04-18T13:47:35.071Z,1.00
2023-04-18T13:50:02.076Z,1.00
2023-04-18T13:52:29.073Z,2.90
2023-04-18T13:54:55.894Z,2.40
2023-04-18T13:57:23.274Z,1.80
2023-04-18T13:59:50.156Z,1.00
2023-04-18T14:02:17.252Z,1.00
2023-04-18T14:04:44.272Z,1.00
2023-04-18T14:07:11.224Z,1.00
2023-04-18T14:09:38.045Z,1.00
2023-04-18T14:12:05.185Z,1.00
2023-04-18T14:14:32.070Z,1.60
2023-04-18T14:16:58.958Z,1.20
2023-04-18T14:19:27.091Z,1.00
2023-04-18T14:21:53.988Z,1.00
2023-04-18T14:24:20.872Z,1.00
2023-04-18T14:26:48.028Z,1.00
2023-04-18T14:29:15.263Z,1.00
2023-04-18T14:31:42.285Z,1.00
2023-04-18T14:34:09.821Z,1.00
2023-04-18T14:36:37.005Z,1.00
2023-04-18T14:39:04.689Z,1.00
2023-04-18T14:41:31.701Z,1.00
2023-04-18T14:43:58.821Z,1.00
2023-04-18T14:46:29.618Z,1.00
2023-04-18T14:48:56.985Z,1.00
2023-04-18T14:51:24.041Z,1.00
2023-04-18T14:53:51.152Z,1.00
2023-04-18T14:56:21.028Z,1.00
2023-04-18T14:58:48.236Z,1.00
2023-04-18T15:01:15.556Z,1.00
2023-04-18T15:03:42.412Z,1.00
2023-04-18T15:06:09.436Z,1.00
2023-04-18T15:08:36.658Z,1.00
2023-04-18T15:11:08.248Z,1.00
2023-04-18T15:13:35.612Z,1.00
2023-04-18T15:16:03.030Z,1.00
2023-04-18T15:18:29.929Z,1.00
2023-04-18T15:20:59.274Z,1.00
2023-04-18T15:23:26.240Z,1.00
2023-04-18T15:25:53.030Z,1.00
2023-04-18T15:28:19.816Z,1.00
2023-04-18T15:30:46.748Z,1.00
2023-04-18T15:33:13.959Z,1.00
2023-04-18T15:35:40.892Z,1.00
2023-04-18T15:38:07.671Z,1.00
2023-04-18T15:40:36.275Z,1.00
2023-04-18T15:43:04.327Z,1.00
2023-04-18T15:45:31.308Z,1.00
2023-04-18T15:47:58.627Z,1.00
2023-04-18T15:50:25.921Z,1.00
2023-04-18T15:52:52.738Z,1.00
2023-04-18T15:55:19.701Z,1.00
2023-04-18T15:57:46.990Z,1.00
2023-04-18T16:00:20.784Z,1.00
2023-04-18T16:02:47.822Z,1.00
2023-04-18T16:05:15.382Z,1.00
2023-04-18T16:07:42.926Z,1.00
2023-04-18T16:10:11.017Z,1.00
2023-04-18T16:12:39.070Z,1.00
2023-04-18T16:15:08.436Z,1.00
2023-04-18T16:17:37.097Z,1.00
2023-04-18T16:20:06.031Z,1.00
2023-04-18T16:22:33.286Z,1.00
2023-04-18T16:25:00.322Z,1.00
2023-04-18T16:27:28.611Z,1.00
2023-04-18T16:29:55.851Z,1.00
2023-04-18T16:32:22.827Z,1.00
2023-04-18T16:34:49.880Z,1.00
2023-04-18T16:37:16.775Z,1.00
2023-04-18T16:39:43.572Z,1.00
2023-04-18T16:42:10.463Z,1.30
2023-04-18T16:44:39.289Z,1.00
2023-04-18T16:47:08.194Z,1.00
2023-04-18T16:49:35.188Z,1.50
2023-04-18T16:52:02.156Z,1.30
2023-04-18T16:54:29.274Z,1.00
2023-04-18T16:56:57.009Z,1.00
2023-04-18T16:59:24.153Z,1.00
2023-04-18T17:01:51.090Z,1.00
2023-04-18T17:04:18.262Z,1.00
2023-04-18T17:06:45.273Z,1.00
2023-04-18T17:09:14.618Z,2.20
2023-04-18T17:11:41.787Z,1.00
2023-04-18T17:14:09.287Z,1.50
2023-04-18T17:16:38.622Z,1.30
2023-04-18T17:19:05.975Z,1.50
2023-04-18T17:21:36.941Z,1.80
2023-04-18T17:24:05.810Z,2.50
2023-04-18T17:26:33.828Z,2.90
2023-04-18T17:29:02.661Z,2.80
2023-04-18T17:31:29.963Z,2.80
2023-04-18T17:33:57.807Z,3.00
2023-04-18T17:36:24.752Z,3.00
2023-04-18T17:38:51.594Z,4.00
2023-04-18T17:41:19.781Z,3.10
2023-04-18T17:43:47.660Z,3.20
2023-04-18T17:46:14.965Z,3.30
2023-04-18T17:48:41.889Z,3.10
2023-04-18T17:51:08.820Z,3.00
2023-04-18T17:53:35.700Z,2.60
2023-04-18T17:56:03.768Z,3.80
2023-04-18T17:58:30.565Z,3.40
2023-04-18T18:00:57.564Z,3.60
2023-04-18T18:03:24.758Z,3.90
2023-04-18T18:05:52.677Z,4.90
2023-04-18T18:08:19.503Z,4.40
2023-04-18T18:10:47.344Z,4.60
2023-04-18T18:13:14.229Z,4.60
2023-04-18T18:15:41.015Z,4.90
2023-04-18T18:18:07.850Z,5.40
2023-04-18T18:20:34.674Z,5.70
2023-04-18T18:23:02.295Z,6.90
2023-04-18T18:25:29.186Z,6.40
2023-04-18T18:27:55.883Z,6.80
2023-04-18T18:30:22.787Z,7.00
2023-04-18T18:32:49.804Z,7.30
2023-04-18T18:35:16.738Z,7.80
2023-04-18T18:37:43.591Z,8.70
2023-04-18T18:40:10.787Z,9.50
2023-04-18T18:42:37.572Z,10.10
2023-04-18T18:45:04.928Z,10.70
2023-04-18T18:47:31.904Z,10.70
2023-04-18T18:49:58.691Z,10.80
2023-04-18T18:52:28.056Z,10.70
2023-04-18T18:54:55.087Z,11.00
2023-04-18T18:57:21.892Z,10.60
2023-04-18T18:59:50.209Z,10.40
2023-04-18T19:02:17.317Z,11.30
2023-04-18T19:04:44.429Z,10.80
2023-04-18T19:07:11.359Z,10.80
2023-04-18T19:09:38.189Z,10.50
2023-04-18T19:12:05.635Z,10.20
2023-04-18T19:14:32.810Z,9.60
2023-04-18T19:16:59.639Z,9.10
2023-04-18T19:19:26.837Z,8.90
2023-04-18T19:21:53.704Z,9.00
2023-04-18T19:24:20.685Z,9.70
2023-04-18T19:26:47.558Z,9.10
2023-04-18T19:29:14.854Z,9.30
2023-04-18T19:31:43.643Z,9.40
2023-04-18T19:34:11.941Z,9.30
2023-04-18T19:36:38.915Z,9.30
2023-04-18T19:39:05.853Z,8.90
2023-04-18T19:41:32.616Z,8.60
2023-04-18T19:43:59.654Z,8.70
2023-04-18T19:46:26.841Z,9.50
2023-04-18T19:48:53.827Z,9.70
2023-04-18T19:51:21.796Z,9.60
2023-04-18T19:53:48.657Z,10.30
2023-04-18T19:56:15.568Z,10.00
2023-04-18T19:58:46.691Z,10.20
2023-04-18T20:01:18.344Z,10.50
2023-04-18T20:03:46.059Z,10.60
2023-04-18T20:06:13.835Z,10.80
2023-04-18T20:08:45.695Z,10.80
2023-04-18T20:11:16.404Z,10.70
2023-04-18T20:13:43.240Z,11.40
2023-04-18T20:16:11.312Z,11.10
2023-04-18T20:18:40.964Z,10.90
2023-04-18T20:21:09.838Z,11.30
2023-04-18T20:23:36.899Z,11.10
2023-04-18T20:26:04.636Z,11.70
2023-04-18T20:28:31.945Z,11.90
2023-04-18T20:30:58.920Z,12.10
2023-04-18T20:33:25.788Z,12.20
2023-04-18T20:35:53.880Z,12.30
2023-04-18T20:38:25.821Z,12.20
2023-04-18T20:40:54.417Z,12.00
2023-04-18T20:43:21.443Z,12.10
2023-04-18T20:45:51.051Z,12.20
2023-04-18T20:48:18.431Z,12.90
2023-04-18T20:50:50.928Z,12.30
2023-04-18T20:53:20.728Z,12.30
2023-04-18T20:55:48.243Z,12.50
2023-04-18T20:58:15.091Z,12.70
2023-04-18T21:00:41.939Z,12.30
2023-04-18T21:03:08.897Z,12.30
2023-04-18T21:05:35.905Z,13.60
2023-04-18T21:08:02.712Z,12.30
2023-04-18T21:10:29.583Z,12.60
2023-04-18T21:12:56.372Z,12.50
2023-04-18T21:15:23.252Z,12.50
2023-04-18T21:17:51.071Z,12.60
2023-04-18T21:20:18.262Z,13.30
2023-04-18T21:22:45.237Z,12.80
2023-04-18T21:25:12.131Z,12.80
2023-04-18T21:27:38.895Z,12.80
2023-04-18T21:30:06.592Z,12.80
2023-04-18T21:32:33.472Z,12.80
2023-04-18T21:35:01.464Z,13.10
2023-04-18T21:37:28.256Z,13.00
2023-04-18T21:39:55.102Z,13.00
2023-04-18T21:42:21.885Z,13.20
2023-04-18T21:44:48.656Z,13.30
2023-04-18T21:47:15.583Z,13.40
2023-04-18T21:49:42.855Z,13.60
2023-04-18T21:52:09.757Z,13.80
2023-04-18T21:54:36.771Z,14.00
2023-04-18T21:57:03.689Z,14.40
2023-04-18T21:59:31.009Z,14.70
2023-04-18T22:01:57.926Z,15.20
2023-04-18T22:04:26.535Z,15.40
2023-04-18T22:06:54.230Z,15.50
2023-04-18T22:09:21.537Z,15.90
2023-04-18T22:11:48.812Z,16.10
2023-04-18T22:14:16.427Z,16.20
2023-04-18T22:16:45.059Z,17.30
2023-04-18T22:19:12.205Z,16.70
2023-04-18T22:21:39.100Z,17.00
2023-04-18T22:24:06.422Z,17.10
2023-04-18T22:26:33.226Z,17.20
2023-04-18T22:29:00.168Z,17.60
2023-04-18T22:31:27.220Z,19.10
2023-04-18T22:33:54.010Z,18.90
2023-04-18T22:36:20.691Z,19.10
2023-04-18T22:38:47.477Z,19.40
2023-04-18T22:41:14.489Z,19.30
2023-04-18T22:43:41.419Z,20.70
2023-04-18T22:46:12.910Z,20.70
2023-04-18T22:48:39.731Z,22.20
2023-04-18T22:51:06.755Z,22.50
2023-04-18T22:53:33.495Z,22.10
2023-04-18T22:56:00.358Z,21.90
2023-04-18T22:58:27.157Z,22.40
2023-04-18T23:00:54.027Z,24.30
2023-04-18T23:03:21.025Z,23.50
2023-04-18T23:05:47.900Z,25.70
2023-04-18T23:08:14.752Z,25.80
2023-04-18T23:10:41.539Z,26.90
2023-04-18T23:13:08.289Z,28.40
2023-04-18T23:15:35.236Z,28.40
2023-04-18T23:18:02.337Z,28.50
2023-04-18T23:20:29.148Z,28.80
2023-04-18T23:22:55.993Z,29.40
2023-04-18T23:25:22.939Z,30.00
2023-04-18T23:27:49.917Z,30.10
2023-04-18T23:30:17.234Z,29.30
2023-04-18T23:32:44.016Z,29.30
2023-04-18T23:35:11.458Z,29.40
2023-04-18T23:37:38.351Z,29.90
2023-04-18T23:40:06.696Z,30.50
2023-04-18T23:42:37.203Z,31.80
2023-04-18T23:45:05.772Z,31.80
2023-04-18T23:47:32.581Z,31.80
2023-04-18T23:49:59.443Z,31.90
2023-04-18T23:52:26.287Z,32.70
2023-04-18T23:54:53.108Z,33.00
2023-04-18T23:57:19.964Z,32.20
2023-04-18T23:59:46.744Z,34.30
